sensor_id;sensor_type;location;lat;lon;timestamp;P1;durP1;ratioP1;P2;durP2;ratioP2
8825;SDS011;4449;50.872;4.714;2023-03-05T00:02:04;3.87;;;3.23;;
8825;SDS011;4449;50.872;4.714;2023-03-05T00:04:32;3.37;;;2.40;;
8825;SDS011;4449;50.872;4.714;2023-03-05T00:07:00;3.00;;;2.70;;
8825;SDS011;4449;50.872;4.714;2023-03-05T00:09:29;2.93;;;1.97;;
8825;SDS011;4449;50.872;4.714;2023-03-05T00:11:57;3.53;;;2.40;;
8825;SDS011;4449;50.872;4.714;2023-03-05T00:14:24;1.90;;;1.80;;
8825;SDS011;4449;50.872;4.714;2023-03-05T00:16:52;4.67;;;3.23;;
8825;SDS011;4449;50.872;4.714;2023-03-05T00:19:20;2.07;;;1.90;;
8825;SDS011;4449;50.872;4.714;2023-03-05T00:21:48;1.93;;;1.77;;
8825;SDS011;4449;50.872;4.714;2023-03-05T00:24:16;5.17;;;2.33;;
8825;SDS011;4449;50.872;4.714;2023-03-05T00:26:46;4.13;;;2.40;;
8825;SDS011;4449;50.872;4.714;2023-03-05T00:29:14;2.47;;;2.27;;
8825;SDS011;4449;50.872;4.714;2023-03-05T00:31:43;5.40;;;2.20;;
8825;SDS011;4449;50.872;4.714;2023-03-05T00:34:12;5.37;;;2.00;;
8825;SDS011;4449;50.872;4.714;2023-03-05T00:36:40;3.43;;;2.10;;
8825;SDS011;4449;50.872;4.714;2023-03-05T00:39:08;2.17;;;2.03;;
8825;SDS011;4449;50.872;4.714;2023-03-05T00:41:36;2.57;;;2.13;;
8825;SDS011;4449;50.872;4.714;2023-03-05T00:44:05;2.93;;;2.10;;
8825;SDS011;4449;50.872;4.714;2023-03-05T00:46:33;4.87;;;1.97;;
8825;SDS011;4449;50.872;4.714;2023-03-05T00:49:01;4.83;;;2.50;;
8825;SDS011;4449;50.872;4.714;2023-03-05T00:51:29;4.77;;;2.27;;
8825;SDS011;4449;50.872;4.714;2023-03-05T00:53:57;3.47;;;2.20;;
8825;SDS011;4449;50.872;4.714;2023-03-05T00:56:24;6.13;;;2.20;;
8825;SDS011;4449;50.872;4.714;2023-03-05T00:58:52;3.43;;;2.23;;
8825;SDS011;4449;50.872;4.714;2023-03-05T01:01:21;2.53;;;2.30;;
8825;SDS011;4449;50.872;4.714;2023-03-05T01:03:50;3.70;;;1.90;;
8825;SDS011;4449;50.872;4.714;2023-03-05T01:06:20;3.50;;;2.30;;
8825;SDS011;4449;50.872;4.714;2023-03-05T01:08:48;3.57;;;2.73;;
8825;SDS011;4449;50.872;4.714;2023-03-05T01:11:16;3.83;;;2.03;;
8825;SDS011;4449;50.872;4.714;2023-03-05T01:13:44;2.70;;;2.47;;
8825;SDS011;4449;50.872;4.714;2023-03-05T01:16:11;5.33;;;3.07;;
8825;SDS011;4449;50.872;4.714;2023-03-05T01:18:40;3.07;;;2.83;;
8825;SDS011;4449;50.872;4.714;2023-03-05T01:21:08;3.00;;;2.80;;
8825;SDS011;4449;50.872;4.714;2023-03-05T01:23:36;4.87;;;3.00;;
8825;SDS011;4449;50.872;4.714;2023-03-05T01:26:04;6.33;;;2.43;;
8825;SDS011;4449;50.872;4.714;2023-03-05T01:28:34;3.10;;;2.80;;
8825;SDS011;4449;50.872;4.714;2023-03-05T01:31:05;5.37;;;2.80;;
8825;SDS011;4449;50.872;4.714;2023-03-05T01:33:33;5.73;;;2.97;;
8825;SDS011;4449;50.872;4.714;2023-03-05T01:36:02;4.60;;;3.70;;
8825;SDS011;4449;50.872;4.714;2023-03-05T01:38:32;5.90;;;2.80;;
8825;SDS011;4449;50.872;4.714;2023-03-05T01:41:00;8.87;;;3.37;;
8825;SDS011;4449;50.872;4.714;2023-03-05T01:43:28;3.23;;;2.93;;
8825;SDS011;4449;50.872;4.714;2023-03-05T01:48:43;5.77;;;3.00;;
8825;SDS011;4449;50.872;4.714;2023-03-05T01:51:14;3.87;;;3.10;;
8825;SDS011;4449;50.872;4.714;2023-03-05T01:53:42;7.40;;;4.73;;
8825;SDS011;4449;50.872;4.714;2023-03-05T01:56:09;4.10;;;3.70;;
8825;SDS011;4449;50.872;4.714;2023-03-05T01:58:37;5.43;;;3.33;;
8825;SDS011;4449;50.872;4.714;2023-03-05T02:01:05;5.43;;;3.37;;
8825;SDS011;4449;50.872;4.714;2023-03-05T02:03:33;4.10;;;3.57;;
8825;SDS011;4449;50.872;4.714;2023-03-05T02:06:01;4.73;;;3.80;;
8825;SDS011;4449;50.872;4.714;2023-03-05T02:08:30;6.77;;;3.63;;
8825;SDS011;4449;50.872;4.714;2023-03-05T02:10:58;6.43;;;3.73;;
8825;SDS011;4449;50.872;4.714;2023-03-05T02:13:27;10.93;;;3.80;;
8825;SDS011;4449;50.872;4.714;2023-03-05T02:15:57;5.77;;;3.10;;
8825;SDS011;4449;50.872;4.714;2023-03-05T02:18:25;4.93;;;3.03;;
8825;SDS011;4449;50.872;4.714;2023-03-05T02:20:58;7.20;;;4.43;;
8825;SDS011;4449;50.872;4.714;2023-03-05T02:23:26;6.30;;;3.50;;
8825;SDS011;4449;50.872;4.714;2023-03-05T02:25:55;7.93;;;3.83;;
8825;SDS011;4449;50.872;4.714;2023-03-05T02:28:23;6.17;;;3.47;;
8825;SDS011;4449;50.872;4.714;2023-03-05T02:30:52;5.43;;;3.10;;
8825;SDS011;4449;50.872;4.714;2023-03-05T02:33:20;3.97;;;3.53;;
8825;SDS011;4449;50.872;4.714;2023-03-05T02:35:48;4.57;;;3.57;;
8825;SDS011;4449;50.872;4.714;2023-03-05T02:38:18;7.17;;;3.53;;
8825;SDS011;4449;50.872;4.714;2023-03-05T02:40:46;3.60;;;3.30;;
8825;SDS011;4449;50.872;4.714;2023-03-05T02:43:14;5.57;;;4.00;;
8825;SDS011;4449;50.872;4.714;2023-03-05T02:45:42;6.03;;;3.57;;
8825;SDS011;4449;50.872;4.714;2023-03-05T02:48:09;9.53;;;3.97;;
8825;SDS011;4449;50.872;4.714;2023-03-05T02:50:37;7.43;;;3.90;;
8825;SDS011;4449;50.872;4.714;2023-03-05T02:53:05;6.13;;;3.83;;
8825;SDS011;4449;50.872;4.714;2023-03-05T02:55:34;6.07;;;4.13;;
8825;SDS011;4449;50.872;4.714;2023-03-05T02:58:02;6.33;;;3.67;;
8825;SDS011;4449;50.872;4.714;2023-03-05T03:00:30;8.03;;;4.07;;
8825;SDS011;4449;50.872;4.714;2023-03-05T03:02:57;10.97;;;4.40;;
8825;SDS011;4449;50.872;4.714;2023-03-05T03:05:25;4.67;;;3.53;;
8825;SDS011;4449;50.872;4.714;2023-03-05T03:07:53;7.43;;;3.83;;
8825;SDS011;4449;50.872;4.714;2023-03-05T03:10:21;5.00;;;3.87;;
8825;SDS011;4449;50.872;4.714;2023-03-05T03:12:50;4.97;;;4.47;;
8825;SDS011;4449;50.872;4.714;2023-03-05T03:15:18;8.07;;;4.30;;
8825;SDS011;4449;50.872;4.714;2023-03-05T03:17:45;9.10;;;4.70;;
8825;SDS011;4449;50.872;4.714;2023-03-05T03:20:14;9.67;;;5.20;;
8825;SDS011;4449;50.872;4.714;2023-03-05T03:22:43;7.50;;;4.40;;
8825;SDS011;4449;50.872;4.714;2023-03-05T03:25:12;7.70;;;4.03;;
8825;SDS011;4449;50.872;4.714;2023-03-05T03:27:40;8.17;;;4.60;;
8825;SDS011;4449;50.872;4.714;2023-03-05T03:30:10;8.03;;;4.90;;
8825;SDS011;4449;50.872;4.714;2023-03-05T03:32:38;7.30;;;5.43;;
8825;SDS011;4449;50.872;4.714;2023-03-05T03:35:07;5.73;;;5.10;;
8825;SDS011;4449;50.872;4.714;2023-03-05T03:37:35;7.47;;;4.73;;
8825;SDS011;4449;50.872;4.714;2023-03-05T03:40:03;7.97;;;5.43;;
8825;SDS011;4449;50.872;4.714;2023-03-05T03:42:31;8.30;;;5.37;;
8825;SDS011;4449;50.872;4.714;2023-03-05T03:44:59;8.97;;;5.10;;
8825;SDS011;4449;50.872;4.714;2023-03-05T03:47:28;6.73;;;5.20;;
8825;SDS011;4449;50.872;4.714;2023-03-05T03:49:56;10.73;;;5.60;;
8825;SDS011;4449;50.872;4.714;2023-03-05T03:52:24;8.67;;;6.07;;
8825;SDS011;4449;50.872;4.714;2023-03-05T03:54:52;10.77;;;6.47;;
8825;SDS011;4449;50.872;4.714;2023-03-05T03:57:26;9.27;;;5.27;;
8825;SDS011;4449;50.872;4.714;2023-03-05T03:59:54;7.50;;;4.67;;
8825;SDS011;4449;50.872;4.714;2023-03-05T04:02:22;8.63;;;5.27;;
8825;SDS011;4449;50.872;4.714;2023-03-05T04:04:51;8.17;;;5.00;;
8825;SDS011;4449;50.872;4.714;2023-03-05T04:07:19;10.47;;;4.60;;
8825;SDS011;4449;50.872;4.714;2023-03-05T04:09:47;7.53;;;4.97;;
8825;SDS011;4449;50.872;4.714;2023-03-05T04:12:15;7.07;;;4.70;;
8825;SDS011;4449;50.872;4.714;2023-03-05T04:14:43;7.00;;;4.30;;
8825;SDS011;4449;50.872;4.714;2023-03-05T04:17:11;13.03;;;4.63;;
8825;SDS011;4449;50.872;4.714;2023-03-05T04:19:40;6.93;;;4.33;;
8825;SDS011;4449;50.872;4.714;2023-03-05T04:22:11;7.23;;;3.90;;
8825;SDS011;4449;50.872;4.714;2023-03-05T04:24:39;5.87;;;4.23;;
8825;SDS011;4449;50.872;4.714;2023-03-05T04:27:06;5.37;;;4.37;;
8825;SDS011;4449;50.872;4.714;2023-03-05T04:29:34;8.00;;;4.70;;
8825;SDS011;4449;50.872;4.714;2023-03-05T04:32:02;7.47;;;4.30;;
8825;SDS011;4449;50.872;4.714;2023-03-05T04:34:30;4.20;;;3.80;;
8825;SDS011;4449;50.872;4.714;2023-03-05T04:36:58;8.63;;;4.30;;
8825;SDS011;4449;50.872;4.714;2023-03-05T04:39:27;5.13;;;4.63;;
8825;SDS011;4449;50.872;4.714;2023-03-05T04:41:55;5.93;;;4.30;;
8825;SDS011;4449;50.872;4.714;2023-03-05T04:44:23;6.47;;;3.90;;
8825;SDS011;4449;50.872;4.714;2023-03-05T04:46:50;5.33;;;3.97;;
8825;SDS011;4449;50.872;4.714;2023-03-05T04:49:18;6.67;;;4.33;;
8825;SDS011;4449;50.872;4.714;2023-03-05T04:51:46;6.60;;;4.20;;
8825;SDS011;4449;50.872;4.714;2023-03-05T04:54:14;11.50;;;4.80;;
8825;SDS011;4449;50.872;4.714;2023-03-05T04:56:43;6.63;;;4.37;;
8825;SDS011;4449;50.872;4.714;2023-03-05T04:59:10;5.77;;;4.00;;
8825;SDS011;4449;50.872;4.714;2023-03-05T05:01:38;6.57;;;4.70;;
8825;SDS011;4449;50.872;4.714;2023-03-05T05:04:07;7.47;;;3.57;;
8825;SDS011;4449;50.872;4.714;2023-03-05T05:06:35;6.00;;;4.00;;
8825;SDS011;4449;50.872;4.714;2023-03-05T05:09:03;8.87;;;3.53;;
8825;SDS011;4449;50.872;4.714;2023-03-05T05:11:30;7.10;;;3.50;;
8825;SDS011;4449;50.872;4.714;2023-03-05T05:14:00;7.43;;;4.30;;
8825;SDS011;4449;50.872;4.714;2023-03-05T05:16:27;7.07;;;3.83;;
8825;SDS011;4449;50.872;4.714;2023-03-05T05:18:55;5.97;;;4.10;;
8825;SDS011;4449;50.872;4.714;2023-03-05T05:21:23;5.77;;;3.70;;
8825;SDS011;4449;50.872;4.714;2023-03-05T05:23:51;8.73;;;3.93;;
8825;SDS011;4449;50.872;4.714;2023-03-05T05:26:19;10.47;;;4.07;;
8825;SDS011;4449;50.872;4.714;2023-03-05T05:28:47;6.97;;;3.60;;
8825;SDS011;4449;50.872;4.714;2023-03-05T05:31:16;3.77;;;3.07;;
8825;SDS011;4449;50.872;4.714;2023-03-05T05:33:44;5.73;;;3.43;;
8825;SDS011;4449;50.872;4.714;2023-03-05T05:36:12;4.37;;;3.50;;
8825;SDS011;4449;50.872;4.714;2023-03-05T05:38:40;7.37;;;3.20;;
8825;SDS011;4449;50.872;4.714;2023-03-05T05:41:09;4.07;;;3.20;;
8825;SDS011;4449;50.872;4.714;2023-03-05T05:43:37;11.67;;;3.57;;
8825;SDS011;4449;50.872;4.714;2023-03-05T05:46:06;3.37;;;3.07;;
8825;SDS011;4449;50.872;4.714;2023-03-05T05:48:35;4.60;;;3.20;;
8825;SDS011;4449;50.872;4.714;2023-03-05T05:51:06;11.77;;;3.87;;
8825;SDS011;4449;50.872;4.714;2023-03-05T05:53:34;3.83;;;3.20;;
8825;SDS011;4449;50.872;4.714;2023-03-05T05:56:02;5.57;;;3.40;;
8825;SDS011;4449;50.872;4.714;2023-03-05T05:58:30;7.07;;;3.23;;
8825;SDS011;4449;50.872;4.714;2023-03-05T06:00:58;4.97;;;3.30;;
8825;SDS011;4449;50.872;4.714;2023-03-05T06:03:26;4.10;;;3.27;;
8825;SDS011;4449;50.872;4.714;2023-03-05T06:05:55;10.50;;;3.53;;
8825;SDS011;4449;50.872;4.714;2023-03-05T06:08:23;6.27;;;3.10;;
8825;SDS011;4449;50.872;4.714;2023-03-05T06:10:54;5.70;;;3.67;;
8825;SDS011;4449;50.872;4.714;2023-03-05T06:13:22;10.37;;;3.50;;
8825;SDS011;4449;50.872;4.714;2023-03-05T06:15:55;4.10;;;2.70;;
8825;SDS011;4449;50.872;4.714;2023-03-05T06:18:23;6.57;;;3.03;;
8825;SDS011;4449;50.872;4.714;2023-03-05T06:20:56;5.47;;;3.80;;
8825;SDS011;4449;50.872;4.714;2023-03-05T06:23:25;10.57;;;3.90;;
8825;SDS011;4449;50.872;4.714;2023-03-05T06:25:53;6.23;;;3.87;;
8825;SDS011;4449;50.872;4.714;2023-03-05T06:28:21;4.17;;;3.70;;
8825;SDS011;4449;50.872;4.714;2023-03-05T06:30:48;6.17;;;3.93;;
8825;SDS011;4449;50.872;4.714;2023-03-05T06:33:16;6.00;;;4.00;;
8825;SDS011;4449;50.872;4.714;2023-03-05T06:35:44;7.90;;;4.10;;
8825;SDS011;4449;50.872;4.714;2023-03-05T06:38:14;7.37;;;4.60;;
8825;SDS011;4449;50.872;4.714;2023-03-05T06:40:41;7.17;;;4.37;;
8825;SDS011;4449;50.872;4.714;2023-03-05T06:43:09;5.33;;;3.77;;
8825;SDS011;4449;50.872;4.714;2023-03-05T06:45:37;5.33;;;4.20;;
8825;SDS011;4449;50.872;4.714;2023-03-05T06:48:05;6.00;;;4.03;;
8825;SDS011;4449;50.872;4.714;2023-03-05T06:50:33;8.43;;;4.03;;
8825;SDS011;4449;50.872;4.714;2023-03-05T06:53:01;7.00;;;4.57;;
8825;SDS011;4449;50.872;4.714;2023-03-05T06:55:31;6.10;;;3.93;;
8825;SDS011;4449;50.872;4.714;2023-03-05T06:58:04;5.30;;;4.17;;
8825;SDS011;4449;50.872;4.714;2023-03-05T07:00:32;7.67;;;4.67;;
8825;SDS011;4449;50.872;4.714;2023-03-05T07:03:00;8.90;;;4.80;;
8825;SDS011;4449;50.872;4.714;2023-03-05T07:05:28;8.17;;;4.27;;
8825;SDS011;4449;50.872;4.714;2023-03-05T07:07:55;10.57;;;5.07;;
8825;SDS011;4449;50.872;4.714;2023-03-05T07:10:23;10.30;;;4.77;;
8825;SDS011;4449;50.872;4.714;2023-03-05T07:12:52;8.17;;;5.17;;
8825;SDS011;4449;50.872;4.714;2023-03-05T07:15:20;7.23;;;4.60;;
8825;SDS011;4449;50.872;4.714;2023-03-05T07:17:47;11.50;;;5.70;;
8825;SDS011;4449;50.872;4.714;2023-03-05T07:20:15;14.23;;;5.87;;
8825;SDS011;4449;50.872;4.714;2023-03-05T07:22:42;7.27;;;5.23;;
8825;SDS011;4449;50.872;4.714;2023-03-05T07:25:10;10.30;;;5.83;;
8825;SDS011;4449;50.872;4.714;2023-03-05T07:27:38;8.43;;;5.77;;
8825;SDS011;4449;50.872;4.714;2023-03-05T07:30:08;9.70;;;5.83;;
8825;SDS011;4449;50.872;4.714;2023-03-05T07:32:36;12.10;;;5.83;;
8825;SDS011;4449;50.872;4.714;2023-03-05T07:35:04;6.07;;;5.47;;
8825;SDS011;4449;50.872;4.714;2023-03-05T07:37:32;6.40;;;3.10;;
8825;SDS011;4449;50.872;4.714;2023-03-05T07:39:59;9.20;;;6.40;;
8825;SDS011;4449;50.872;4.714;2023-03-05T07:42:27;11.53;;;6.27;;
8825;SDS011;4449;50.872;4.714;2023-03-05T07:44:55;8.67;;;6.10;;
8825;SDS011;4449;50.872;4.714;2023-03-05T07:47:25;15.60;;;6.67;;
8825;SDS011;4449;50.872;4.714;2023-03-05T07:49:52;8.07;;;5.57;;
8825;SDS011;4449;50.872;4.714;2023-03-05T07:52:20;7.93;;;5.53;;
8825;SDS011;4449;50.872;4.714;2023-03-05T07:54:48;8.70;;;5.53;;
8825;SDS011;4449;50.872;4.714;2023-03-05T07:57:16;7.33;;;5.57;;
8825;SDS011;4449;50.872;4.714;2023-03-05T07:59:44;5.10;;;4.70;;
8825;SDS011;4449;50.872;4.714;2023-03-05T08:02:12;10.27;;;4.80;;
8825;SDS011;4449;50.872;4.714;2023-03-05T08:04:42;6.47;;;5.17;;
8825;SDS011;4449;50.872;4.714;2023-03-05T08:07:12;7.23;;;4.70;;
8825;SDS011;4449;50.872;4.714;2023-03-05T08:09:40;13.17;;;5.37;;
8825;SDS011;4449;50.872;4.714;2023-03-05T08:12:08;7.43;;;5.50;;
8825;SDS011;4449;50.872;4.714;2023-03-05T08:14:36;8.43;;;5.03;;
8825;SDS011;4449;50.872;4.714;2023-03-05T08:17:04;7.70;;;5.80;;
8825;SDS011;4449;50.872;4.714;2023-03-05T08:19:32;7.97;;;4.63;;
8825;SDS011;4449;50.872;4.714;2023-03-05T08:22:02;6.53;;;5.43;;
8825;SDS011;4449;50.872;4.714;2023-03-05T08:24:30;8.87;;;5.40;;
8825;SDS011;4449;50.872;4.714;2023-03-05T08:26:58;5.73;;;5.20;;
8825;SDS011;4449;50.872;4.714;2023-03-05T08:29:25;5.50;;;4.93;;
8825;SDS011;4449;50.872;4.714;2023-03-05T08:31:53;9.63;;;5.67;;
8825;SDS011;4449;50.872;4.714;2023-03-05T08:34:21;6.57;;;5.07;;
8825;SDS011;4449;50.872;4.714;2023-03-05T08:36:49;5.33;;;4.70;;
8825;SDS011;4449;50.872;4.714;2023-03-05T08:39:18;5.17;;;4.30;;
8825;SDS011;4449;50.872;4.714;2023-03-05T08:41:46;6.17;;;3.90;;
8825;SDS011;4449;50.872;4.714;2023-03-05T08:44:14;5.40;;;3.87;;
8825;SDS011;4449;50.872;4.714;2023-03-05T08:46:42;6.83;;;4.27;;
8825;SDS011;4449;50.872;4.714;2023-03-05T08:49:09;6.10;;;3.07;;
8825;SDS011;4449;50.872;4.714;2023-03-05T08:51:37;4.07;;;3.10;;
8825;SDS011;4449;50.872;4.714;2023-03-05T08:54:05;5.50;;;3.10;;
8825;SDS011;4449;50.872;4.714;2023-03-05T08:56:35;3.43;;;3.23;;
8825;SDS011;4449;50.872;4.714;2023-03-05T08:59:03;3.37;;;3.10;;
8825;SDS011;4449;50.872;4.714;2023-03-05T09:01:30;2.87;;;2.67;;
8825;SDS011;4449;50.872;4.714;2023-03-05T09:03:58;4.07;;;2.87;;
8825;SDS011;4449;50.872;4.714;2023-03-05T09:06:26;3.40;;;2.60;;
8825;SDS011;4449;50.872;4.714;2023-03-05T09:08:54;3.30;;;3.10;;
8825;SDS011;4449;50.872;4.714;2023-03-05T09:11:22;4.40;;;3.10;;
8825;SDS011;4449;50.872;4.714;2023-03-05T09:13:51;6.83;;;2.93;;
8825;SDS011;4449;50.872;4.714;2023-03-05T09:16:19;3.70;;;2.73;;
8825;SDS011;4449;50.872;4.714;2023-03-05T09:18:47;3.13;;;2.90;;
8825;SDS011;4449;50.872;4.714;2023-03-05T09:21:15;3.37;;;3.17;;
8825;SDS011;4449;50.872;4.714;2023-03-05T09:23:43;3.60;;;3.10;;
8825;SDS011;4449;50.872;4.714;2023-03-05T09:26:12;2.90;;;2.70;;
8825;SDS011;4449;50.872;4.714;2023-03-05T09:28:43;7.07;;;3.87;;
8825;SDS011;4449;50.872;4.714;2023-03-05T09:31:12;5.77;;;5.07;;
8825;SDS011;4449;50.872;4.714;2023-03-05T09:33:40;4.77;;;4.37;;
8825;SDS011;4449;50.872;4.714;2023-03-05T09:36:15;6.80;;;5.37;;
8825;SDS011;4449;50.872;4.714;2023-03-05T09:38:43;6.20;;;4.97;;
8825;SDS011;4449;50.872;4.714;2023-03-05T09:41:14;5.27;;;4.20;;
8825;SDS011;4449;50.872;4.714;2023-03-05T10:41:36;4.60;;;2.40;;
8825;SDS011;4449;50.872;4.714;2023-03-05T10:44:08;1.40;;;1.40;;
8825;SDS011;4449;50.872;4.714;2023-03-05T10:46:37;2.27;;;1.60;;
8825;SDS011;4449;50.872;4.714;2023-03-05T10:49:10;1.20;;;1.20;;
8825;SDS011;4449;50.872;4.714;2023-03-05T10:51:43;1.40;;;1.30;;
8825;SDS011;4449;50.872;4.714;2023-03-05T10:54:15;1.90;;;1.80;;
8825;SDS011;4449;50.872;4.714;2023-03-05T10:56:46;1.40;;;1.30;;
8825;SDS011;4449;50.872;4.714;2023-03-05T10:59:14;1.23;;;1.23;;
8825;SDS011;4449;50.872;4.714;2023-03-05T11:01:42;2.03;;;1.67;;
8825;SDS011;4449;50.872;4.714;2023-03-05T11:04:28;1.50;;;1.50;;
8825;SDS011;4449;50.872;4.714;2023-03-05T11:07:01;1.90;;;1.80;;
8825;SDS011;4449;50.872;4.714;2023-03-05T11:09:32;5.60;;;2.03;;
8825;SDS011;4449;50.872;4.714;2023-03-05T11:12:07;1.40;;;1.40;;
8825;SDS011;4449;50.872;4.714;2023-03-05T11:14:37;1.80;;;1.70;;
8825;SDS011;4449;50.872;4.714;2023-03-05T11:19:48;1.80;;;1.70;;
8825;SDS011;4449;50.872;4.714;2023-03-05T11:22:19;3.03;;;1.90;;
8825;SDS011;4449;50.872;4.714;2023-03-05T11:25:01;1.50;;;1.50;;
8825;SDS011;4449;50.872;4.714;2023-03-05T11:27:33;1.87;;;1.87;;
8825;SDS011;4449;50.872;4.714;2023-03-05T11:30:02;1.63;;;1.63;;
8825;SDS011;4449;50.872;4.714;2023-03-05T11:32:30;1.63;;;1.60;;
8825;SDS011;4449;50.872;4.714;2023-03-05T11:34:57;2.10;;;2.00;;
8825;SDS011;4449;50.872;4.714;2023-03-05T11:37:26;3.73;;;3.20;;
8825;SDS011;4449;50.872;4.714;2023-03-05T11:42:42;1.87;;;1.80;;
8825;SDS011;4449;50.872;4.714;2023-03-05T11:45:13;1.90;;;1.80;;
8825;SDS011;4449;50.872;4.714;2023-03-05T11:47:42;3.63;;;2.00;;
8825;SDS011;4449;50.872;4.714;2023-03-05T11:50:19;3.33;;;2.03;;
8825;SDS011;4449;50.872;4.714;2023-03-05T11:52:48;3.60;;;2.17;;
8825;SDS011;4449;50.872;4.714;2023-03-05T11:55:16;3.70;;;3.40;;
8825;SDS011;4449;50.872;4.714;2023-03-05T11:57:47;2.63;;;2.30;;
8825;SDS011;4449;50.872;4.714;2023-03-05T12:02:44;4.00;;;3.70;;
8825;SDS011;4449;50.872;4.714;2023-03-05T12:05:14;4.10;;;3.00;;
8825;SDS011;4449;50.872;4.714;2023-03-05T12:07:43;2.90;;;2.00;;
8825;SDS011;4449;50.872;4.714;2023-03-05T12:10:13;2.00;;;1.90;;
8825;SDS011;4449;50.872;4.714;2023-03-05T12:12:43;1.77;;;1.67;;
8825;SDS011;4449;50.872;4.714;2023-03-05T12:18:17;4.00;;;1.73;;
8825;SDS011;4449;50.872;4.714;2023-03-05T12:20:48;1.50;;;1.40;;
8825;SDS011;4449;50.872;4.714;2023-03-05T12:23:21;1.50;;;1.40;;
8825;SDS011;4449;50.872;4.714;2023-03-05T12:25:51;1.90;;;1.67;;
8825;SDS011;4449;50.872;4.714;2023-03-05T12:31:04;4.00;;;1.53;;
8825;SDS011;4449;50.872;4.714;2023-03-05T12:33:34;2.13;;;1.80;;
8825;SDS011;4449;50.872;4.714;2023-03-05T12:38:51;3.40;;;1.77;;
8825;SDS011;4449;50.872;4.714;2023-03-05T12:44:09;1.70;;;1.60;;
8825;SDS011;4449;50.872;4.714;2023-03-05T12:46:37;1.47;;;1.37;;
8825;SDS011;4449;50.872;4.714;2023-03-05T12:51:52;2.30;;;1.20;;
8825;SDS011;4449;50.872;4.714;2023-03-05T12:54:31;3.60;;;1.50;;
8825;SDS011;4449;50.872;4.714;2023-03-05T12:56:59;5.20;;;1.90;;
8825;SDS011;4449;50.872;4.714;2023-03-05T12:59:36;2.53;;;1.53;;
8825;SDS011;4449;50.872;4.714;2023-03-05T13:02:13;2.23;;;1.80;;
8825;SDS011;4449;50.872;4.714;2023-03-05T13:04:43;5.67;;;1.87;;
8825;SDS011;4449;50.872;4.714;2023-03-05T13:07:14;2.67;;;2.17;;
8825;SDS011;4449;50.872;4.714;2023-03-05T13:09:50;3.57;;;2.07;;
8825;SDS011;4449;50.872;4.714;2023-03-05T13:12:18;3.43;;;2.27;;
8825;SDS011;4449;50.872;4.714;2023-03-05T13:14:46;2.00;;;1.90;;
8825;SDS011;4449;50.872;4.714;2023-03-05T13:17:27;3.20;;;2.33;;
8825;SDS011;4449;50.872;4.714;2023-03-05T13:19:55;3.03;;;2.20;;
8825;SDS011;4449;50.872;4.714;2023-03-05T13:22:25;3.53;;;2.43;;
8825;SDS011;4449;50.872;4.714;2023-03-05T13:27:45;5.63;;;3.10;;
8825;SDS011;4449;50.872;4.714;2023-03-05T13:30:21;3.27;;;2.97;;
8825;SDS011;4449;50.872;4.714;2023-03-05T13:32:49;3.83;;;3.60;;
8825;SDS011;4449;50.872;4.714;2023-03-05T13:35:18;3.80;;;3.50;;
8825;SDS011;4449;50.872;4.714;2023-03-05T13:37:48;4.10;;;3.70;;
8825;SDS011;4449;50.872;4.714;2023-03-05T13:40:20;3.27;;;3.07;;
8825;SDS011;4449;50.872;4.714;2023-03-05T13:42:48;3.23;;;3.03;;
8825;SDS011;4449;50.872;4.714;2023-03-05T13:45:21;4.40;;;4.00;;
8825;SDS011;4449;50.872;4.714;2023-03-05T13:47:50;5.07;;;4.57;;
8825;SDS011;4449;50.872;4.714;2023-03-05T13:50:21;4.97;;;4.57;;
8825;SDS011;4449;50.872;4.714;2023-03-05T13:52:51;5.00;;;4.60;;
8825;SDS011;4449;50.872;4.714;2023-03-05T13:55:19;4.53;;;4.13;;
8825;SDS011;4449;50.872;4.714;2023-03-05T13:57:48;5.60;;;4.03;;
8825;SDS011;4449;50.872;4.714;2023-03-05T14:00:28;6.87;;;4.53;;
8825;SDS011;4449;50.872;4.714;2023-03-05T14:02:56;6.53;;;4.60;;
8825;SDS011;4449;50.872;4.714;2023-03-05T14:05:25;5.93;;;4.80;;
8825;SDS011;4449;50.872;4.714;2023-03-05T14:07:55;4.97;;;4.57;;
8825;SDS011;4449;50.872;4.714;2023-03-05T14:10:26;5.10;;;4.37;;
8825;SDS011;4449;50.872;4.714;2023-03-05T14:12:55;6.27;;;4.23;;
8825;SDS011;4449;50.872;4.714;2023-03-05T14:15:24;4.47;;;4.10;;
8825;SDS011;4449;50.872;4.714;2023-03-05T14:17:52;4.27;;;3.97;;
8825;SDS011;4449;50.872;4.714;2023-03-05T14:20:33;3.83;;;3.53;;
8825;SDS011;4449;50.872;4.714;2023-03-05T14:23:22;3.27;;;3.07;;
8825;SDS011;4449;50.872;4.714;2023-03-05T14:25:50;2.93;;;2.60;;
8825;SDS011;4449;50.872;4.714;2023-03-05T14:28:20;2.43;;;2.33;;
8825;SDS011;4449;50.872;4.714;2023-03-05T14:30:53;3.03;;;2.70;;
8825;SDS011;4449;50.872;4.714;2023-03-05T14:33:21;3.67;;;2.80;;
8825;SDS011;4449;50.872;4.714;2023-03-05T14:35:50;2.73;;;2.53;;
8825;SDS011;4449;50.872;4.714;2023-03-05T14:38:21;3.37;;;3.07;;
8825;SDS011;4449;50.872;4.714;2023-03-05T14:40:50;3.70;;;3.40;;
8825;SDS011;4449;50.872;4.714;2023-03-05T14:43:18;7.87;;;4.13;;
8825;SDS011;4449;50.872;4.714;2023-03-05T14:45:46;5.13;;;4.20;;
8825;SDS011;4449;50.872;4.714;2023-03-05T14:48:19;5.87;;;4.77;;
8825;SDS011;4449;50.872;4.714;2023-03-05T14:50:50;6.93;;;5.60;;
8825;SDS011;4449;50.872;4.714;2023-03-05T14:53:23;8.27;;;5.30;;
8825;SDS011;4449;50.872;4.714;2023-03-05T14:55:55;7.07;;;5.00;;
8825;SDS011;4449;50.872;4.714;2023-03-05T14:58:23;9.70;;;4.90;;
8825;SDS011;4449;50.872;4.714;2023-03-05T15:00:52;7.37;;;4.40;;
8825;SDS011;4449;50.872;4.714;2023-03-05T15:03:20;3.70;;;3.47;;
8825;SDS011;4449;50.872;4.714;2023-03-05T15:05:48;3.37;;;3.17;;
8825;SDS011;4449;50.872;4.714;2023-03-05T15:08:17;3.60;;;3.30;;
8825;SDS011;4449;50.872;4.714;2023-03-05T15:10:48;4.07;;;3.77;;
8825;SDS011;4449;50.872;4.714;2023-03-05T15:13:16;4.70;;;3.83;;
8825;SDS011;4449;50.872;4.714;2023-03-05T15:15:44;6.90;;;4.30;;
8825;SDS011;4449;50.872;4.714;2023-03-05T15:18:13;6.33;;;4.10;;
8825;SDS011;4449;50.872;4.714;2023-03-05T15:20:42;6.03;;;4.17;;
8825;SDS011;4449;50.872;4.714;2023-03-05T15:23:10;4.83;;;3.87;;
8825;SDS011;4449;50.872;4.714;2023-03-05T15:25:38;3.53;;;3.27;;
8825;SDS011;4449;50.872;4.714;2023-03-05T15:28:07;3.47;;;3.27;;
8825;SDS011;4449;50.872;4.714;2023-03-05T15:30:36;3.83;;;2.90;;
8825;SDS011;4449;50.872;4.714;2023-03-05T15:33:05;3.30;;;3.10;;
8825;SDS011;4449;50.872;4.714;2023-03-05T15:35:33;3.20;;;3.00;;
8825;SDS011;4449;50.872;4.714;2023-03-05T15:38:00;2.80;;;2.70;;
8825;SDS011;4449;50.872;4.714;2023-03-05T15:40:28;5.30;;;3.53;;
8825;SDS011;4449;50.872;4.714;2023-03-05T15:42:57;3.00;;;2.80;;
8825;SDS011;4449;50.872;4.714;2023-03-05T15:45:26;3.17;;;2.47;;
8825;SDS011;4449;50.872;4.714;2023-03-05T15:47:55;3.20;;;2.90;;
8825;SDS011;4449;50.872;4.714;2023-03-05T15:50:23;3.13;;;2.93;;
8825;SDS011;4449;50.872;4.714;2023-03-05T15:52:51;4.33;;;2.93;;
8825;SDS011;4449;50.872;4.714;2023-03-05T15:55:19;3.07;;;2.73;;
8825;SDS011;4449;50.872;4.714;2023-03-05T15:57:48;3.23;;;2.90;;
8825;SDS011;4449;50.872;4.714;2023-03-05T16:00:16;4.23;;;2.87;;
8825;SDS011;4449;50.872;4.714;2023-03-05T16:02:46;2.70;;;2.50;;
8825;SDS011;4449;50.872;4.714;2023-03-05T16:05:14;3.97;;;2.83;;
8825;SDS011;4449;50.872;4.714;2023-03-05T16:07:43;5.50;;;2.83;;
8825;SDS011;4449;50.872;4.714;2023-03-05T16:10:12;5.50;;;3.83;;
8825;SDS011;4449;50.872;4.714;2023-03-05T16:12:42;3.33;;;2.70;;
8825;SDS011;4449;50.872;4.714;2023-03-05T16:15:12;3.07;;;2.63;;
8825;SDS011;4449;50.872;4.714;2023-03-05T16:17:40;2.67;;;2.47;;
8825;SDS011;4449;50.872;4.714;2023-03-05T16:20:12;2.43;;;2.23;;
8825;SDS011;4449;50.872;4.714;2023-03-05T16:22:40;4.90;;;2.70;;
8825;SDS011;4449;50.872;4.714;2023-03-05T16:25:08;4.70;;;3.53;;
8825;SDS011;4449;50.872;4.714;2023-03-05T16:27:35;4.97;;;2.87;;
8825;SDS011;4449;50.872;4.714;2023-03-05T16:30:04;2.70;;;2.50;;
8825;SDS011;4449;50.872;4.714;2023-03-05T16:32:32;3.50;;;3.20;;
8825;SDS011;4449;50.872;4.714;2023-03-05T16:35:00;6.93;;;3.60;;
8825;SDS011;4449;50.872;4.714;2023-03-05T16:37:29;3.03;;;2.73;;
8825;SDS011;4449;50.872;4.714;2023-03-05T16:39:57;4.23;;;2.87;;
8825;SDS011;4449;50.872;4.714;2023-03-05T16:42:25;5.37;;;3.20;;
8825;SDS011;4449;50.872;4.714;2023-03-05T16:44:52;5.47;;;3.43;;
8825;SDS011;4449;50.872;4.714;2023-03-05T16:47:21;3.67;;;3.37;;
8825;SDS011;4449;50.872;4.714;2023-03-05T16:49:49;3.60;;;3.00;;
8825;SDS011;4449;50.872;4.714;2023-03-05T16:52:16;4.23;;;3.20;;